createdAt,value
2017-05-04T00:00:58.319Z,95458.27
2017-05-04T00:02:20.072Z,95456.95
2017-05-04T00:03:41.833Z,95457.85
2017-05-04T00:05:03.810Z,95461.11
2017-05-04T00:06:25.578Z,95463.8
2017-05-04T00:07:48.383Z,95460.88
2017-05-04T00:09:10.246Z,95461.05
2017-05-04T00:10:34.067Z,95457.22
2017-05-04T00:11:56.036Z,95455.89
2017-05-04T00:13:17.777Z,95456.56
2017-05-04T00:14:40.669Z,95458.7
2017-05-04T00:16:02.444Z,95451.79
2017-05-04T00:17:24.303Z,95450.64
2017-05-04T00:18:47.245Z,95448.19
2017-05-04T00:20:09.066Z,95449.23
2017-05-04T00:21:31.023Z,95447.41
2017-05-04T00:22:52.789Z,95450.97
2017-05-04T00:24:14.545Z,95448.81
2017-05-04T00:25:36.418Z,95448.4
2017-05-04T00:26:58.195Z,95451
2017-05-04T00:28:19.952Z,95451.06
2017-05-04T00:29:41.692Z,95452.73
2017-05-04T00:31:03.586Z,95450.13
2017-05-04T00:32:25.547Z,95451.37
2017-05-04T00:33:48.326Z,95450.8
2017-05-04T00:35:10.131Z,95450.58
2017-05-04T00:36:31.933Z,95449.81
2017-05-04T00:37:54.802Z,95448.16
2017-05-04T00:39:16.679Z,95448.51
2017-05-04T00:40:38.511Z,95448.98
2017-05-04T00:42:00.284Z,95448.05
2017-05-04T00:43:23.181Z,95444.31
2017-05-04T00:44:45.001Z,95445.98
2017-05-04T00:46:06.788Z,95446.84
2017-05-04T00:47:28.635Z,95447.25
2017-05-04T00:48:50.396Z,95451.59
2017-05-04T00:50:12.302Z,95447.39
2017-05-04T00:51:35.176Z,95447.55
2017-05-04T00:52:56.947Z,95445.91
2017-05-04T00:54:18.690Z,95446.03
2017-05-04T00:55:40.449Z,95444.33
2017-05-04T00:57:03.238Z,95444.12
2017-05-04T00:58:25.155Z,95442.88
2017-05-04T00:59:48.197Z,95445.63
2017-05-04T01:01:11.102Z,95446.06
2017-05-04T01:02:33.415Z,95447.52
2017-05-04T01:03:55.334Z,95442.37
2017-05-04T01:05:19.149Z,95440.12
2017-05-04T01:06:41.008Z,95438.17
2017-05-04T01:08:02.771Z,95433.91
2017-05-04T01:09:24.748Z,95436.46
2017-05-04T01:10:46.747Z,95432.33
2017-05-04T01:12:08.496Z,95429.56
2017-05-04T01:13:30.260Z,95427.51
2017-05-04T01:14:52.011Z,95426.68
2017-05-04T01:16:13.743Z,95431.36
2017-05-04T01:17:36.453Z,95426.34
2017-05-04T01:18:58.237Z,95426.2
2017-05-04T01:20:19.971Z,95426.23
2017-05-04T01:21:41.984Z,95423.42
2017-05-04T01:23:03.935Z,95420.98
2017-05-04T01:24:25.797Z,95416.98
2017-05-04T01:25:47.687Z,95416.33
2017-05-04T01:27:09.526Z,95416.91
2017-05-04T01:28:31.296Z,95413.05
2017-05-04T01:29:53.095Z,95420.03
2017-05-04T01:31:14.808Z,95418.36
2017-05-04T01:32:37.649Z,95420.64
2017-05-04T01:33:59.616Z,95416.12
2017-05-04T01:35:21.944Z,95416.3
2017-05-04T01:36:43.988Z,95419.86
2017-05-04T01:38:05.801Z,95419.66
2017-05-04T01:39:27.563Z,95422.49
2017-05-04T01:40:49.420Z,95420.5
2017-05-04T01:42:11.203Z,95425.52
2017-05-04T01:43:32.948Z,95424.25
2017-05-04T01:44:54.820Z,95423.89
2017-05-04T01:46:16.589Z,95419.91
2017-05-04T01:47:38.361Z,95417.98
2017-05-04T01:49:00.194Z,95421.5
2017-05-04T01:50:21.984Z,95416.7
2017-05-04T01:51:45.784Z,95421.35
2017-05-04T01:53:07.563Z,95418.52
2017-05-04T01:54:29.414Z,95415.66
2017-05-04T01:55:51.180Z,95418.27
2017-05-04T01:57:13.992Z,95413.98
2017-05-04T01:58:35.855Z,95417.7
2017-05-04T01:59:57.717Z,95415.14
2017-05-04T02:01:19.471Z,95414.03
2017-05-04T02:02:41.248Z,95414.77
2017-05-04T02:04:03.117Z,95413.48
2017-05-04T02:05:24.994Z,95419.55
2017-05-04T02:06:46.755Z,95422.59
2017-05-04T02:08:08.609Z,95418.2
2017-05-04T02:09:31.582Z,95418.77
2017-05-04T02:10:53.697Z,95420.33
2017-05-04T02:12:16.674Z,95419.7
2017-05-04T02:13:38.520Z,95420.89
2017-05-04T02:15:00.347Z,95423.25
2017-05-04T02:16:22.177Z,95420.16
2017-05-04T02:17:43.890Z,95423.91
2017-05-04T02:19:05.677Z,95424.92
2017-05-04T02:20:27.404Z,95420.39
2017-05-04T02:21:49.455Z,95424
2017-05-04T02:23:11.232Z,95423.95
2017-05-04T02:24:33.050Z,95422.03
2017-05-04T02:25:54.916Z,95421.26
2017-05-04T02:27:16.732Z,95422.01
2017-05-04T02:28:38.555Z,95418.89
2017-05-04T02:30:00.327Z,95415.18
2017-05-04T02:31:22.191Z,95416.64
2017-05-04T02:32:44.067Z,95418.17
2017-05-04T02:34:05.823Z,95415.5
2017-05-04T02:35:27.572Z,95416.9
2017-05-04T02:36:50.358Z,95414.95
2017-05-04T02:38:12.362Z,95413.98
2017-05-04T02:39:34.186Z,95414.39
2017-05-04T02:40:55.967Z,95410.66
2017-05-04T02:42:17.874Z,95410.15
2017-05-04T02:43:40.353Z,95406.31
2017-05-04T02:45:02.347Z,95409.62
2017-05-04T02:46:24.027Z,95409.05
2017-05-04T02:47:45.833Z,95410.52
2017-05-04T02:49:07.780Z,95410.58
2017-05-04T02:50:29.554Z,95407.41
2017-05-04T02:51:51.308Z,95410.22
2017-05-04T02:53:13.173Z,95403.6
2017-05-04T02:54:35.039Z,95402.06
2017-05-04T02:55:56.919Z,95402.42
2017-05-04T02:57:18.763Z,95398.21
2017-05-04T02:58:41.108Z,95400.78
2017-05-04T03:00:03.847Z,95397.03
2017-05-04T03:01:26.112Z,95397.36
2017-05-04T03:02:47.870Z,95393.78
2017-05-04T03:04:09.750Z,95399.02
2017-05-04T03:05:31.612Z,95396.03
2017-05-04T03:06:53.378Z,95395.13
2017-05-04T03:08:15.241Z,95396.19
2017-05-04T03:09:38.129Z,95396.61
2017-05-04T03:11:00.097Z,95396.05
2017-05-04T03:12:21.852Z,95392.98
2017-05-04T03:13:43.566Z,95391.8
2017-05-04T03:15:06.319Z,95393.67
2017-05-04T03:16:28.532Z,95393.28
2017-05-04T03:17:50.486Z,95395.41
2017-05-04T03:19:12.228Z,95394.75
2017-05-04T03:20:34.015Z,95393.05
2017-05-04T03:21:55.749Z,95391.29
2017-05-04T03:23:17.498Z,95391.38
2017-05-04T03:24:39.282Z,95390.74
2017-05-04T03:26:00.995Z,95389.52
2017-05-04T03:27:22.845Z,95390.59
2017-05-04T03:28:45.587Z,95390.78
2017-05-04T03:30:07.361Z,95387.58
2017-05-04T03:31:29.230Z,95386.66
2017-05-04T03:32:51.050Z,95383.71
2017-05-04T03:34:12.806Z,95383.75
2017-05-04T03:35:35.653Z,95384.41
2017-05-04T03:36:57.354Z,95384.73
2017-05-04T03:38:19.183Z,95388.03
2017-05-04T03:39:41.960Z,95391.34
2017-05-04T03:41:03.663Z,95390.13
2017-05-04T03:42:25.592Z,95393.58
2017-05-04T03:43:47.396Z,95392.94
2017-05-04T03:45:09.129Z,95393.19
2017-05-04T03:46:30.844Z,95391.06
2017-05-04T03:47:52.614Z,95386.68
2017-05-04T03:49:14.399Z,95384.8
2017-05-04T03:50:36.350Z,95385.16
2017-05-04T03:51:58.345Z,95386.43
2017-05-04T03:53:20.010Z,95386
2017-05-04T03:54:41.984Z,95386.45
2017-05-04T03:56:03.750Z,95387.22
2017-05-04T03:57:25.629Z,95389.23
2017-05-04T03:58:47.504Z,95385.25
2017-05-04T04:00:09.370Z,95384.81
2017-05-04T04:01:32.267Z,95377.92
2017-05-04T04:02:54.015Z,95382.7
2017-05-04T04:04:15.885Z,95381.52
2017-05-04T04:05:37.735Z,95385.36
2017-05-04T04:06:59.517Z,95381.03
2017-05-04T04:08:21.338Z,95381.41
2017-05-04T04:09:43.272Z,95382.48
2017-05-04T04:11:06.040Z,95383.48
2017-05-04T04:12:27.905Z,95379.63
2017-05-04T04:13:50.807Z,95380.3
2017-05-04T04:15:13.707Z,95378.91
2017-05-04T04:16:35.528Z,95379.08
2017-05-04T04:17:57.540Z,95379.38
2017-05-04T04:19:19.377Z,95382.81
2017-05-04T04:20:41.253Z,95380.73
2017-05-04T04:22:03.075Z,95384.28
2017-05-04T04:23:25.307Z,95385.54
2017-05-04T04:24:47.184Z,95389.84
2017-05-04T04:26:10.125Z,95388.75
2017-05-04T04:27:32.241Z,95385.95
2017-05-04T04:28:54.111Z,95385.88
2017-05-04T04:30:15.909Z,95384.02
2017-05-04T04:31:38.663Z,95380.96
2017-05-04T04:33:01.678Z,95379.14
2017-05-04T04:34:23.539Z,95384.97
2017-05-04T04:35:45.351Z,95384.04
2017-05-04T04:37:07.168Z,95385.66
2017-05-04T04:38:29.088Z,95388.84
2017-05-04T04:39:50.804Z,95384.66
2017-05-04T04:41:13.631Z,95387.65
2017-05-04T04:42:35.420Z,95388
2017-05-04T04:43:57.267Z,95384.84
2017-05-04T04:45:19.037Z,95381.36
2017-05-04T04:46:40.788Z,95381.94
2017-05-04T04:48:02.561Z,95380.47
2017-05-04T04:49:24.446Z,95379.39
2017-05-04T04:50:46.195Z,95377.99
2017-05-04T04:52:08.098Z,95377.92
2017-05-04T04:53:29.843Z,95373.64
2017-05-04T04:54:51.730Z,95370.54
2017-05-04T04:56:13.557Z,95369.38
2017-05-04T04:57:35.353Z,95367.05
2017-05-04T04:58:57.204Z,95360.34
2017-05-04T05:00:19.065Z,95361.64
2017-05-04T05:01:41.084Z,95362.28
2017-05-04T05:03:03.150Z,95360.05
2017-05-04T05:04:24.955Z,95361.16
2017-05-04T05:05:46.836Z,95365.27
2017-05-04T05:07:08.594Z,95361.51
2017-05-04T05:08:30.377Z,95359.29
2017-05-04T05:09:52.225Z,95362.78
2017-05-04T05:11:14.106Z,95365.25
2017-05-04T05:12:36.992Z,95364.05
2017-05-04T05:13:58.773Z,95362.33
2017-05-04T05:15:20.515Z,95363.48
2017-05-04T05:16:42.377Z,95365.63
2017-05-04T05:18:04.163Z,95363.14
2017-05-04T05:19:25.995Z,95362.7
2017-05-04T05:20:47.814Z,95360.63
2017-05-04T05:22:09.683Z,95360.35
2017-05-04T05:23:31.507Z,95360.1
2017-05-04T05:24:53.299Z,95362.25
2017-05-04T05:26:15.013Z,95360.13
2017-05-04T05:27:36.821Z,95357.66
2017-05-04T05:28:59.696Z,95358.02
2017-05-04T05:30:21.464Z,95354.53
2017-05-04T05:31:43.318Z,95350.69
2017-05-04T05:33:05.084Z,95352.23
2017-05-04T05:34:27.060Z,95345.73
2017-05-04T05:35:50.161Z,95345.28
2017-05-04T05:37:12.222Z,95346.89
2017-05-04T05:38:34.091Z,95346.33
2017-05-04T05:39:55.942Z,95343.91
2017-05-04T05:41:17.761Z,95342.58
2017-05-04T05:42:39.520Z,95344.03
2017-05-04T05:44:01.349Z,95342
2017-05-04T05:45:23.052Z,95344.34
2017-05-04T05:46:44.880Z,95345.91
2017-05-04T05:48:06.587Z,95344.47
2017-05-04T05:49:30.357Z,95344.69
2017-05-04T05:50:53.250Z,95348.23
2017-05-04T05:52:15.111Z,95346.61
2017-05-04T05:53:36.872Z,95347.41
2017-05-04T05:54:58.743Z,95346.3
2017-05-04T05:56:20.600Z,95344.67
2017-05-04T05:57:42.469Z,95343.97
2017-05-04T05:59:04.245Z,95340.2
2017-05-04T06:00:27.153Z,95342.07
2017-05-04T06:01:49.945Z,95338.87
2017-05-04T06:03:11.684Z,95343.86
2017-05-04T06:04:33.573Z,95344.81
2017-05-04T06:05:55.927Z,95345.36
2017-05-04T06:07:18.817Z,95345.67
2017-05-04T06:08:40.582Z,95340.49
2017-05-04T06:10:06.713Z,95344.75
2017-05-04T06:11:42.130Z,95343.73
2017-05-04T06:13:04.092Z,95345.5
2017-05-04T06:14:25.973Z,95341.98
2017-05-04T06:15:47.747Z,95343.7
2017-05-04T06:17:09.803Z,95343.23
2017-05-04T06:18:31.551Z,95346.23
2017-05-04T06:19:55.434Z,95345.79
2017-05-04T06:21:17.238Z,95342.18
2017-05-04T06:22:39.053Z,95341.31
2017-05-04T06:24:00.901Z,95340.77
2017-05-04T06:25:22.660Z,95344.88
2017-05-04T06:26:44.451Z,95340.77
2017-05-04T06:28:06.386Z,95339.58
2017-05-04T06:29:28.219Z,95337.47
2017-05-04T06:30:49.971Z,95337.98
2017-05-04T06:32:11.791Z,95335.16
2017-05-04T06:33:33.642Z,95332.26
2017-05-04T06:34:55.393Z,95333.76
2017-05-04T06:36:17.251Z,95336.95
2017-05-04T06:37:39.046Z,95334.75
2017-05-04T06:39:00.909Z,95330.91
2017-05-04T06:40:22.839Z,95331.48
2017-05-04T06:41:44.617Z,95332.31
2017-05-04T06:43:06.417Z,95331.75
2017-05-04T06:44:28.247Z,95331.88
2017-05-04T06:45:50.051Z,95331.03
2017-05-04T06:47:12.099Z,95330.93
2017-05-04T06:48:33.895Z,95330.2
2017-05-04T06:49:55.829Z,95330.58
2017-05-04T06:51:17.623Z,95332.66
2017-05-04T06:52:39.457Z,95329.98
2017-05-04T06:54:01.337Z,95329.23
2017-05-04T06:55:23.191Z,95329.67
2017-05-04T06:56:44.962Z,95327.77
2017-05-04T06:58:06.811Z,95327.17
2017-05-04T06:59:28.584Z,95326.98
2017-05-04T07:00:50.443Z,95322.66
2017-05-04T07:02:12.217Z,95322.28
2017-05-04T07:03:33.981Z,95323.02
2017-05-04T07:04:59.187Z,95320.33
2017-05-04T07:06:22.016Z,95319.05
2017-05-04T07:07:44.903Z,95322.75
2017-05-04T07:09:06.655Z,95321.93
2017-05-04T07:10:28.667Z,95321.34
2017-05-04T07:11:50.621Z,95318.9
2017-05-04T07:13:12.392Z,95315.45
2017-05-04T07:14:34.178Z,95314.73
2017-05-04T07:15:55.959Z,95314
2017-05-04T07:17:17.857Z,95309.83
2017-05-04T07:18:39.758Z,95311.11
2017-05-04T07:20:01.619Z,95314.75
2017-05-04T07:21:23.792Z,95308.02
2017-05-04T07:22:47.240Z,95311.89
2017-05-04T07:24:09.137Z,95312.37
2017-05-04T07:25:31.024Z,95313.31
2017-05-04T07:26:52.886Z,95315.45
2017-05-04T07:28:14.842Z,95316.31
2017-05-04T07:29:36.624Z,95313.2
2017-05-04T07:30:58.636Z,95314.44
2017-05-04T07:32:20.497Z,95308.67
2017-05-04T07:33:42.531Z,95309.88
2017-05-04T07:35:04.287Z,95311
2017-05-04T07:36:26.054Z,95308.47
2017-05-04T07:37:47.817Z,95310.08
2017-05-04T07:39:09.785Z,95307.73
2017-05-04T07:40:31.512Z,95305.56
2017-05-04T07:41:53.431Z,95302.98
2017-05-04T07:43:15.229Z,95304.67
2017-05-04T07:44:37.157Z,95304.03
2017-05-04T07:45:58.900Z,95302.42
2017-05-04T07:47:20.784Z,95304.3
2017-05-04T07:48:42.512Z,95302.49
2017-05-04T07:50:05.425Z,95298.88
2017-05-04T07:51:27.255Z,95298.96
2017-05-04T07:52:49.079Z,95300.45
2017-05-04T07:54:10.833Z,95293.91
2017-05-04T07:55:32.819Z,95293.36
2017-05-04T07:56:54.682Z,95294.76
2017-05-04T07:58:16.529Z,95291.37
2017-05-04T07:59:38.298Z,95294.05
2017-05-04T08:01:00.170Z,95291.82
2017-05-04T08:02:22.073Z,95290.24
2017-05-04T08:03:44.022Z,95289.2
2017-05-04T08:05:05.805Z,95289.09
2017-05-04T08:06:27.642Z,95287.47
2017-05-04T08:07:49.500Z,95283.58
2017-05-04T08:09:11.243Z,95286.02
2017-05-04T08:10:33.043Z,95284.7
2017-05-04T08:11:54.865Z,95288.92
2017-05-04T08:13:16.677Z,95288.27
2017-05-04T08:14:48.197Z,95291.86
2017-05-04T08:16:10.024Z,95288.17
2017-05-04T08:17:31.890Z,95284.02
2017-05-04T08:18:53.766Z,95283.86
2017-05-04T08:20:15.444Z,95281.63
2017-05-04T08:21:37.302Z,95277.53
2017-05-04T08:22:59.137Z,95277.63
2017-05-04T08:24:20.893Z,95276.05
2017-05-04T08:25:42.670Z,95276.8
2017-05-04T08:27:04.413Z,95277.92
2017-05-04T08:28:26.293Z,95275.3
2017-05-04T08:29:48.088Z,95277.26
2017-05-04T08:31:09.939Z,95272.14
2017-05-04T08:32:31.957Z,95274.24
2017-05-04T08:33:53.767Z,95274.85
2017-05-04T08:35:15.788Z,95273.36
2017-05-04T08:36:37.603Z,95268.92
2017-05-04T08:37:59.382Z,95267.59
2017-05-04T08:39:21.247Z,95266.77
2017-05-04T08:40:43.014Z,95263.92
2017-05-04T08:42:04.863Z,95268.13
2017-05-04T08:43:26.633Z,95267.11
2017-05-04T08:44:49.425Z,95267.37
2017-05-04T08:46:11.174Z,95270.34
2017-05-04T08:47:33.794Z,95267.33
2017-05-04T08:48:55.559Z,95268.91
2017-05-04T08:50:17.448Z,95266.83
2017-05-04T08:51:39.282Z,95267.64
2017-05-04T08:53:01.127Z,95266.25
2017-05-04T08:54:32.713Z,95267.44
2017-05-04T08:55:54.580Z,95265.53
2017-05-04T08:57:16.475Z,95265.69
2017-05-04T08:58:38.324Z,95265.64
2017-05-04T09:00:00.086Z,95261.12
2017-05-04T09:01:22.040Z,95260.38
2017-05-04T09:02:43.918Z,95257.08
2017-05-04T09:04:05.672Z,95257.66
2017-05-04T09:05:27.550Z,95256.05
2017-05-04T09:06:49.424Z,95256.95
2017-05-04T09:08:11.386Z,95259.81
2017-05-04T09:09:33.391Z,95254.89
2017-05-04T09:10:55.418Z,95255.02
2017-05-04T09:12:18.239Z,95253.8
2017-05-04T09:13:40.086Z,95250.83
2017-05-04T09:15:01.859Z,95242.66
2017-05-04T09:16:23.626Z,95240.49
2017-05-04T09:17:45.480Z,95245.14
2017-05-04T09:19:07.346Z,95241.36
2017-05-04T09:20:29.203Z,95238.18
2017-05-04T09:21:50.981Z,95235.81
2017-05-04T09:23:12.721Z,95225.33
2017-05-04T09:24:34.503Z,95222.34
2017-05-04T09:25:56.277Z,95219.09
2017-05-04T09:27:18.032Z,95215.3
2017-05-04T09:28:39.880Z,95212.94
2017-05-04T09:30:01.787Z,95207.6
2017-05-04T09:31:23.544Z,95203.91
2017-05-04T09:32:45.390Z,95204.27
2017-05-04T09:34:07.481Z,95201.09
2017-05-04T09:35:29.359Z,95193.63
2017-05-04T09:36:51.103Z,95191.97
2017-05-04T09:38:12.818Z,95184.47
2017-05-04T09:39:34.621Z,95174.8
2017-05-04T09:40:56.398Z,95182.06
2017-05-04T09:42:18.161Z,95183.2
2017-05-04T09:43:39.913Z,95167.55
2017-05-04T09:45:01.858Z,95157.73
2017-05-04T09:46:23.680Z,95152.8
2017-05-04T09:47:45.435Z,95150.21
2017-05-04T09:49:07.281Z,95151.78
2017-05-04T09:50:29.362Z,95137.05
2017-05-04T09:51:51.130Z,95137.72
2017-05-04T09:53:12.982Z,95150.7
2017-05-04T09:54:34.740Z,95156.56
2017-05-04T09:55:58.267Z,95160.42
2017-05-04T09:57:19.955Z,95157.59
2017-05-04T09:58:41.838Z,95187.3
2017-05-04T10:00:03.561Z,95181.62
2017-05-04T10:01:25.422Z,95198.55
2017-05-04T10:02:47.183Z,95181
2017-05-04T10:04:08.941Z,95176.14
2017-05-04T10:05:30.746Z,95180.52
2017-05-04T10:06:52.574Z,95183.56
2017-05-04T10:08:14.341Z,95180.45
2017-05-04T10:09:36.219Z,95175.7
2017-05-04T10:10:58.073Z,95175.82
2017-05-04T10:12:20.014Z,95181.55
2017-05-04T10:13:41.806Z,95181.94
2017-05-04T10:15:03.666Z,95183.03
2017-05-04T10:16:25.481Z,95184.92
2017-05-04T10:17:47.312Z,95183.66
2017-05-04T10:19:09.073Z,95181.87
2017-05-04T10:20:30.930Z,95185.8
2017-05-04T10:21:52.982Z,95193.67
2017-05-04T10:23:15.685Z,95172.23
2017-05-04T10:24:37.675Z,95185.3
2017-05-04T10:25:59.821Z,95178.69
2017-05-04T10:27:21.713Z,95175.53
2017-05-04T10:28:43.471Z,95164.67
2017-05-04T10:30:05.349Z,95156.86
2017-05-04T10:31:27.097Z,95158.22
2017-05-04T10:32:48.861Z,95159.4
2017-05-04T10:34:10.735Z,95162.19
2017-05-04T10:35:32.595Z,95161.16
2017-05-04T10:36:54.468Z,95155.9
2017-05-04T10:38:16.224Z,95158.03
2017-05-04T10:39:38.100Z,95159.23
2017-05-04T10:40:59.933Z,95160.68
2017-05-04T10:42:21.813Z,95164.22
2017-05-04T10:43:43.694Z,95170.89
2017-05-04T10:45:05.628Z,95161.08
2017-05-04T10:46:27.444Z,95160.64
2017-05-04T10:47:49.302Z,95152.59
2017-05-04T10:49:11.163Z,95148.93
2017-05-04T10:50:32.934Z,95152.84
2017-05-04T10:51:54.816Z,95145.27
2017-05-04T10:53:16.690Z,95145.77
2017-05-04T10:54:38.448Z,95142.19
2017-05-04T10:56:00.398Z,95136.27
2017-05-04T10:57:22.261Z,95133.5
2017-05-04T10:58:44.131Z,95140.72
2017-05-04T11:00:05.929Z,95136.97
2017-05-04T11:01:28.060Z,95136.48
2017-05-04T11:02:49.930Z,95138.71
2017-05-04T11:04:11.816Z,95136.39
2017-05-04T11:05:33.579Z,95134.78
2017-05-04T11:06:55.533Z,95137.53
2017-05-04T11:08:17.322Z,95139.28
2017-05-04T11:09:39.167Z,95143.92
2017-05-04T11:11:01.038Z,95137.36
2017-05-04T11:12:22.915Z,95144.61
2017-05-04T11:13:44.777Z,95148.98
2017-05-04T11:15:07.549Z,95143.2
2017-05-04T11:16:29.306Z,95137.8
2017-05-04T11:17:51.180Z,95141.7
2017-05-04T11:19:12.959Z,95143.89
2017-05-04T11:20:34.784Z,95144.13
2017-05-04T11:21:56.686Z,95149.73
2017-05-04T11:23:18.442Z,95148.39
2017-05-04T11:24:40.201Z,95139.67
2017-05-04T11:26:02.037Z,95138.08
2017-05-04T11:27:23.823Z,95132.48
2017-05-04T11:28:46.472Z,95130.33
2017-05-04T11:30:08.201Z,95125.49
2017-05-04T11:31:30.061Z,95118.47
2017-05-04T11:32:51.936Z,95125.09
2017-05-04T11:34:14.825Z,95126.63
2017-05-04T11:35:36.588Z,95133.31
2017-05-04T11:36:58.376Z,95135.24
2017-05-04T11:38:20.226Z,95137.02
2017-05-04T11:39:41.959Z,95136.26
2017-05-04T11:41:04.456Z,95141.59
2017-05-04T11:42:26.218Z,95141.62
2017-05-04T11:43:48.127Z,95139.31
2017-05-04T11:45:09.866Z,95140.23
2017-05-04T11:46:31.607Z,95137.39
2017-05-04T11:47:53.383Z,95138.78
2017-05-04T11:49:15.242Z,95136
2017-05-04T11:50:37.247Z,95132.89
2017-05-04T11:51:59.011Z,95136.74
2017-05-04T11:53:20.792Z,95138.2
2017-05-04T11:54:42.646Z,95134.95
2017-05-04T11:56:04.473Z,95134.18
2017-05-04T11:57:26.337Z,95133.77
2017-05-04T11:58:48.220Z,95135.12
2017-05-04T12:00:09.974Z,95136.46
2017-05-04T12:01:31.941Z,95137.05
2017-05-04T12:02:53.688Z,95138.13
2017-05-04T12:04:15.457Z,95138.36
2017-05-04T12:05:37.203Z,95137.28
2017-05-04T12:06:59.400Z,95140.19
2017-05-04T12:08:22.404Z,95136.58
2017-05-04T12:09:45.592Z,95130.33
2017-05-04T12:11:08.592Z,95136.09
2017-05-04T12:12:30.557Z,95133.52
2017-05-04T12:13:52.341Z,95133.3
2017-05-04T12:15:14.208Z,95128.13
2017-05-04T12:16:36.069Z,95128.56
2017-05-04T12:17:58.043Z,95126.63
2017-05-04T12:19:19.916Z,95116.72
2017-05-04T12:20:41.751Z,95113.87
2017-05-04T12:22:13.371Z,95114.84
2017-05-04T12:23:35.313Z,95109.58
2017-05-04T12:24:57.071Z,95108.23
2017-05-04T12:26:18.886Z,95101.45
2017-05-04T12:27:40.668Z,95102.69
2017-05-04T12:29:02.485Z,95094.37
2017-05-04T12:30:24.398Z,95091.81
2017-05-04T12:31:46.211Z,95088.27
2017-05-04T12:33:07.970Z,95093.03
2017-05-04T12:34:29.933Z,95093.37
2017-05-04T12:35:51.733Z,95085.66
2017-05-04T12:37:13.745Z,95085.46
2017-05-04T12:38:35.639Z,95067.12
2017-05-04T12:39:57.397Z,95067.73
2017-05-04T12:41:19.153Z,95072.65
2017-05-04T12:42:41.089Z,95077.46
2017-05-04T12:44:03.014Z,95079.34
2017-05-04T12:45:24.898Z,95083.91
2017-05-04T12:46:46.633Z,95082.59
2017-05-04T12:48:08.608Z,95080.8
2017-05-04T12:49:30.475Z,95081.7
2017-05-04T12:50:52.380Z,95084.74
2017-05-04T12:52:14.223Z,95085.48
2017-05-04T12:53:36.076Z,95082.12
2017-05-04T12:54:57.955Z,95081.69
2017-05-04T12:56:19.824Z,95078.65
2017-05-04T12:57:41.682Z,95080.08
2017-05-04T12:59:03.570Z,95078.7
2017-05-04T13:00:25.372Z,95078.33
2017-05-04T13:01:47.289Z,95076.75
2017-05-04T13:03:09.165Z,95082.83
2017-05-04T13:04:31.003Z,95086.87
2017-05-04T13:05:52.812Z,95084.87
2017-05-04T13:07:14.849Z,95086.08
2017-05-04T13:08:36.703Z,95082.55
2017-05-04T13:10:00.616Z,95085.3
2017-05-04T13:11:22.653Z,95084.5
2017-05-04T13:12:44.473Z,95086.78
2017-05-04T13:14:08.320Z,95085.5
2017-05-04T13:15:30.124Z,95093.02
2017-05-04T13:16:54.919Z,95091.25
2017-05-04T13:18:20.554Z,95089.38
2017-05-04T13:19:42.420Z,95096.92
2017-05-04T13:21:10.566Z,95096.45
2017-05-04T13:22:32.384Z,95099.16
2017-05-04T13:23:54.239Z,95101.53
2017-05-04T13:25:16.142Z,95105.8
2017-05-04T13:26:37.959Z,95105.3
2017-05-04T13:27:59.733Z,95107.98
2017-05-04T13:29:23.541Z,95102.73
2017-05-04T13:30:45.402Z,95109.52
2017-05-04T13:32:07.127Z,95102.97
2017-05-04T13:33:28.990Z,95097.95
2017-05-04T13:34:50.915Z,95096.27
2017-05-04T13:36:12.680Z,95099.69
2017-05-04T13:37:34.454Z,95094.65
2017-05-04T13:38:56.299Z,95095.77
2017-05-04T13:40:18.185Z,95098.61
2017-05-04T13:41:40.602Z,95098.16
2017-05-04T13:43:02.423Z,95095.57
2017-05-04T13:44:24.311Z,95096.21
2017-05-04T13:45:46.234Z,95101.64
2017-05-04T13:47:08.003Z,95097.2
2017-05-04T13:48:29.882Z,95093.59
2017-05-04T13:49:51.672Z,95094.34
2017-05-04T13:51:13.528Z,95093.89
2017-05-04T13:52:46.150Z,95094.23
2017-05-04T13:54:07.988Z,95091.69
2017-05-04T13:55:29.747Z,95094.86
2017-05-04T13:56:52.634Z,95097.48
2017-05-04T13:58:14.409Z,95097.3
2017-05-04T13:59:36.145Z,95096.84
2017-05-04T14:00:57.931Z,95097.27
2017-05-04T14:02:19.831Z,95093.14
2017-05-04T14:03:41.622Z,95097.02
2017-05-04T14:05:03.456Z,95093.94
2017-05-04T14:06:25.300Z,95097.19
2017-05-04T14:07:47.160Z,95095.36
2017-05-04T14:09:08.954Z,95098.99
2017-05-04T14:10:30.800Z,95095.32
2017-05-04T14:11:52.658Z,95096.6
2017-05-04T14:13:16.719Z,95094.61
2017-05-04T14:14:53.214Z,95091.95
2017-05-04T14:16:28.680Z,95095.98
2017-05-04T14:18:33.733Z,95094.36
2017-05-04T14:20:27.135Z,95092.86
2017-05-04T14:22:23.658Z,95094.14
2017-05-04T14:24:17.144Z,95098.31
2017-05-04T14:26:13.698Z,95090.85
2017-05-04T14:28:10.162Z,95095.61
2017-05-04T14:30:10.280Z,95097.3
2017-05-04T14:32:12.838Z,95100.17
2017-05-04T14:34:11.260Z,95109.98
2017-05-04T14:36:12.582Z,95111.37
2017-05-04T14:38:11.705Z,95107.31
2017-05-04T14:40:10.843Z,95110.59
2017-05-04T14:42:13.657Z,95119.24
2017-05-04T14:44:20.414Z,95121.52
2017-05-04T14:46:22.958Z,95121.32
2017-05-04T14:48:24.685Z,95144.84
2017-05-04T14:50:26.398Z,95170.01
2017-05-04T14:52:27.578Z,95201.48
2017-05-04T14:56:31.247Z,95225.63
2017-05-04T14:58:33.364Z,95227.73
2017-05-04T15:00:32.036Z,95237.7
2017-05-04T15:02:33.987Z,95235.23
2017-05-04T15:04:18.338Z,95239.14
2017-05-04T15:05:41.741Z,95239.03
2017-05-04T15:07:03.582Z,95241.66
2017-05-04T15:08:26.681Z,95237.5
2017-05-04T15:09:49.560Z,95244.77
2017-05-04T15:11:11.422Z,95249.42
2017-05-04T15:12:33.317Z,95251.09
2017-05-04T15:13:55.136Z,95259.05
2017-05-04T15:15:16.912Z,95260.19
2017-05-04T15:16:38.663Z,95267.7
2017-05-04T15:18:00.557Z,95266.32
2017-05-04T15:19:22.528Z,95270.27
2017-05-04T15:20:47.602Z,95270.67
2017-05-04T15:22:09.443Z,95274.09
2017-05-04T15:23:31.286Z,95274.92
2017-05-04T15:24:54.079Z,95273.87
2017-05-04T15:26:15.844Z,95282.77
2017-05-04T15:27:37.748Z,95275.84
2017-05-04T15:29:00.600Z,95281.41
2017-05-04T15:30:23.508Z,95283.16
2017-05-04T15:31:45.283Z,95277.53
2017-05-04T15:33:07.141Z,95275
2017-05-04T15:34:28.935Z,95282.2
2017-05-04T15:35:50.707Z,95277.19
2017-05-04T15:37:12.635Z,95273.24
2017-05-04T15:38:34.477Z,95275.8
2017-05-04T15:39:57.581Z,95276.16
2017-05-04T15:41:20.660Z,95276.86
2017-05-04T15:42:44.413Z,95274.37
2017-05-04T15:44:06.454Z,95271.39
2017-05-04T15:45:29.330Z,95277.16
2017-05-04T15:46:51.733Z,95276.71
2017-05-04T15:48:16.389Z,95280.2
2017-05-04T15:49:38.879Z,95279.74
2017-05-04T15:51:00.728Z,95282.42
2017-05-04T15:52:22.579Z,95280.75
2017-05-04T15:53:44.633Z,95275.73
2017-05-04T15:55:06.505Z,95279.14
2017-05-04T15:56:28.291Z,95278.73
2017-05-04T15:57:50.131Z,95279.29
2017-05-04T15:59:11.970Z,95279.69
2017-05-04T16:00:33.896Z,95276.55
2017-05-04T16:01:55.702Z,95279.72
2017-05-04T16:03:17.591Z,95277.89
2017-05-04T16:04:39.578Z,95279.83
2017-05-04T16:06:02.990Z,95278.52
2017-05-04T16:07:26.363Z,95273.63
2017-05-04T16:08:48.153Z,95275.45
2017-05-04T16:10:10.103Z,95273.92
2017-05-04T16:11:31.888Z,95271.72
2017-05-04T16:12:54.680Z,95277.03
2017-05-04T16:14:16.444Z,95273.33
2017-05-04T16:15:39.310Z,95274.3
2017-05-04T16:17:01.142Z,95272.62
2017-05-04T16:18:23.294Z,95274.03
2017-05-04T16:19:45.436Z,95270.66
2017-05-04T16:21:08.724Z,95274.22
2017-05-04T16:22:31.946Z,95272.79
2017-05-04T16:23:53.782Z,95279.78
2017-05-04T16:25:15.645Z,95279.98